sensor_id;sensor_type;location;lat;lon;timestamp;P1;durP1;ratioP1;P2;durP2;ratioP2
4049;SDS011;2039;50.894;6.888;2022-07-22T00:00:31;73.17;;;18.13;;
4049;SDS011;2039;50.894;6.888;2022-07-22T00:02:57;74.77;;;17.93;;
4049;SDS011;2039;50.894;6.888;2022-07-22T00:05:23;72.63;;;20.97;;
4049;SDS011;2039;50.894;6.888;2022-07-22T00:07:49;73.97;;;18.30;;
4049;SDS011;2039;50.894;6.888;2022-07-22T00:10:14;73.60;;;22.73;;
4049;SDS011;2039;50.894;6.888;2022-07-22T00:12:40;75.00;;;20.07;;
4049;SDS011;2039;50.894;6.888;2022-07-22T00:15:06;74.77;;;22.60;;
4049;SDS011;2039;50.894;6.888;2022-07-22T00:17:33;70.77;;;18.27;;
4049;SDS011;2039;50.894;6.888;2022-07-22T00:20:01;73.17;;;18.40;;
4049;SDS011;2039;50.894;6.888;2022-07-22T00:22:28;74.87;;;23.40;;
4049;SDS011;2039;50.894;6.888;2022-07-22T00:24:53;73.33;;;21.03;;
4049;SDS011;2039;50.894;6.888;2022-07-22T00:27:19;71.67;;;19.40;;
4049;SDS011;2039;50.894;6.888;2022-07-22T00:29:45;74.17;;;19.40;;
4049;SDS011;2039;50.894;6.888;2022-07-22T00:32:11;74.33;;;19.20;;
4049;SDS011;2039;50.894;6.888;2022-07-22T00:34:37;74.63;;;19.00;;
4049;SDS011;2039;50.894;6.888;2022-07-22T00:37:02;70.27;;;17.20;;
4049;SDS011;2039;50.894;6.888;2022-07-22T00:39:29;75.50;;;16.13;;
4049;SDS011;2039;50.894;6.888;2022-07-22T00:41:56;71.90;;;16.77;;
4049;SDS011;2039;50.894;6.888;2022-07-22T00:44:21;70.83;;;16.13;;
4049;SDS011;2039;50.894;6.888;2022-07-22T00:46:47;72.47;;;17.47;;
4049;SDS011;2039;50.894;6.888;2022-07-22T00:49:13;72.20;;;14.23;;
4049;SDS011;2039;50.894;6.888;2022-07-22T00:51:39;70.50;;;13.00;;
4049;SDS011;2039;50.894;6.888;2022-07-22T00:54:05;67.80;;;11.90;;
4049;SDS011;2039;50.894;6.888;2022-07-22T00:56:31;73.17;;;15.70;;
4049;SDS011;2039;50.894;6.888;2022-07-22T00:58:58;72.77;;;15.10;;
4049;SDS011;2039;50.894;6.888;2022-07-22T01:01:26;68.60;;;11.60;;
4049;SDS011;2039;50.894;6.888;2022-07-22T01:03:52;68.57;;;12.27;;
4049;SDS011;2039;50.894;6.888;2022-07-22T01:06:18;71.20;;;8.40;;
4049;SDS011;2039;50.894;6.888;2022-07-22T01:08:44;67.60;;;10.10;;
4049;SDS011;2039;50.894;6.888;2022-07-22T01:11:13;71.50;;;13.10;;
4049;SDS011;2039;50.894;6.888;2022-07-22T01:13:44;68.77;;;9.63;;
4049;SDS011;2039;50.894;6.888;2022-07-22T01:16:11;68.97;;;9.60;;
4049;SDS011;2039;50.894;6.888;2022-07-22T01:18:38;71.60;;;12.23;;
4049;SDS011;2039;50.894;6.888;2022-07-22T01:21:05;68.00;;;8.87;;
4049;SDS011;2039;50.894;6.888;2022-07-22T01:23:31;71.80;;;11.27;;
4049;SDS011;2039;50.894;6.888;2022-07-22T01:25:57;69.53;;;10.43;;
4049;SDS011;2039;50.894;6.888;2022-07-22T01:28:23;67.17;;;10.87;;
4049;SDS011;2039;50.894;6.888;2022-07-22T01:30:49;71.20;;;9.77;;
4049;SDS011;2039;50.894;6.888;2022-07-22T01:33:19;72.83;;;10.93;;
4049;SDS011;2039;50.894;6.888;2022-07-22T01:35:46;69.20;;;9.97;;
4049;SDS011;2039;50.894;6.888;2022-07-22T01:38:12;69.00;;;11.10;;
4049;SDS011;2039;50.894;6.888;2022-07-22T01:40:38;71.67;;;10.27;;
4049;SDS011;2039;50.894;6.888;2022-07-22T01:43:05;74.70;;;11.50;;
4049;SDS011;2039;50.894;6.888;2022-07-22T01:45:31;70.90;;;11.63;;
4049;SDS011;2039;50.894;6.888;2022-07-22T01:47:57;71.93;;;11.37;;
4049;SDS011;2039;50.894;6.888;2022-07-22T01:50:23;69.77;;;10.07;;
4049;SDS011;2039;50.894;6.888;2022-07-22T01:52:50;72.60;;;12.00;;
4049;SDS011;2039;50.894;6.888;2022-07-22T01:55:16;71.87;;;10.07;;
4049;SDS011;2039;50.894;6.888;2022-07-22T01:57:42;74.83;;;11.10;;
4049;SDS011;2039;50.894;6.888;2022-07-22T02:00:08;82.87;;;12.63;;
4049;SDS011;2039;50.894;6.888;2022-07-22T02:02:36;71.30;;;15.10;;
4049;SDS011;2039;50.894;6.888;2022-07-22T02:05:03;72.37;;;13.93;;
4049;SDS011;2039;50.894;6.888;2022-07-22T02:07:32;74.97;;;13.27;;
4049;SDS011;2039;50.894;6.888;2022-07-22T02:09:58;70.63;;;13.00;;
4049;SDS011;2039;50.894;6.888;2022-07-22T02:12:24;70.63;;;12.10;;
4049;SDS011;2039;50.894;6.888;2022-07-22T02:14:50;72.80;;;12.20;;
4049;SDS011;2039;50.894;6.888;2022-07-22T02:17:16;73.63;;;11.90;;
4049;SDS011;2039;50.894;6.888;2022-07-22T02:19:41;71.50;;;10.30;;
4049;SDS011;2039;50.894;6.888;2022-07-22T02:22:07;69.43;;;10.83;;
4049;SDS011;2039;50.894;6.888;2022-07-22T02:24:33;77.43;;;10.97;;
4049;SDS011;2039;50.894;6.888;2022-07-22T02:26:59;70.27;;;10.87;;
4049;SDS011;2039;50.894;6.888;2022-07-22T02:29:26;74.30;;;11.70;;
4049;SDS011;2039;50.894;6.888;2022-07-22T02:31:52;72.67;;;11.40;;
4049;SDS011;2039;50.894;6.888;2022-07-22T02:34:17;72.83;;;11.40;;
4049;SDS011;2039;50.894;6.888;2022-07-22T02:36:43;67.87;;;9.43;;
4049;SDS011;2039;50.894;6.888;2022-07-22T02:39:09;69.47;;;9.13;;
4049;SDS011;2039;50.894;6.888;2022-07-22T02:41:35;69.60;;;9.40;;
4049;SDS011;2039;50.894;6.888;2022-07-22T02:44:00;71.90;;;10.93;;
4049;SDS011;2039;50.894;6.888;2022-07-22T02:46:26;69.30;;;9.27;;
4049;SDS011;2039;50.894;6.888;2022-07-22T02:48:55;72.57;;;10.33;;
4049;SDS011;2039;50.894;6.888;2022-07-22T02:51:21;70.80;;;9.87;;
4049;SDS011;2039;50.894;6.888;2022-07-22T02:53:47;72.37;;;9.87;;
4049;SDS011;2039;50.894;6.888;2022-07-22T02:56:13;69.97;;;10.70;;
4049;SDS011;2039;50.894;6.888;2022-07-22T02:58:39;72.03;;;10.90;;
4049;SDS011;2039;50.894;6.888;2022-07-22T03:01:05;68.47;;;10.30;;
4049;SDS011;2039;50.894;6.888;2022-07-22T03:03:31;67.40;;;8.40;;
4049;SDS011;2039;50.894;6.888;2022-07-22T03:05:57;72.00;;;10.87;;
4049;SDS011;2039;50.894;6.888;2022-07-22T03:08:23;69.70;;;8.70;;
4049;SDS011;2039;50.894;6.888;2022-07-22T03:10:50;74.13;;;8.90;;
4049;SDS011;2039;50.894;6.888;2022-07-22T03:13:16;68.67;;;9.80;;
4049;SDS011;2039;50.894;6.888;2022-07-22T03:15:42;71.37;;;7.93;;
4049;SDS011;2039;50.894;6.888;2022-07-22T03:18:07;67.40;;;9.47;;
4049;SDS011;2039;50.894;6.888;2022-07-22T03:20:33;68.83;;;9.10;;
4049;SDS011;2039;50.894;6.888;2022-07-22T03:22:59;70.80;;;10.20;;
4049;SDS011;2039;50.894;6.888;2022-07-22T03:25:25;69.47;;;9.30;;
4049;SDS011;2039;50.894;6.888;2022-07-22T03:27:51;71.70;;;10.80;;
4049;SDS011;2039;50.894;6.888;2022-07-22T03:30:16;71.33;;;11.57;;
4049;SDS011;2039;50.894;6.888;2022-07-22T03:32:42;69.10;;;8.80;;
4049;SDS011;2039;50.894;6.888;2022-07-22T03:35:13;74.30;;;9.97;;
4049;SDS011;2039;50.894;6.888;2022-07-22T03:37:39;71.47;;;9.60;;
4049;SDS011;2039;50.894;6.888;2022-07-22T03:40:05;71.87;;;11.93;;
4049;SDS011;2039;50.894;6.888;2022-07-22T03:42:32;76.03;;;12.37;;
4049;SDS011;2039;50.894;6.888;2022-07-22T03:44:57;69.83;;;12.47;;
4049;SDS011;2039;50.894;6.888;2022-07-22T03:47:23;69.50;;;11.83;;
4049;SDS011;2039;50.894;6.888;2022-07-22T03:49:49;70.37;;;13.40;;
4049;SDS011;2039;50.894;6.888;2022-07-22T03:52:15;74.37;;;11.90;;
4049;SDS011;2039;50.894;6.888;2022-07-22T03:54:41;69.77;;;13.10;;
4049;SDS011;2039;50.894;6.888;2022-07-22T03:57:08;72.93;;;12.83;;
4049;SDS011;2039;50.894;6.888;2022-07-22T03:59:34;69.50;;;13.00;;
4049;SDS011;2039;50.894;6.888;2022-07-22T04:02:01;71.83;;;12.70;;
4049;SDS011;2039;50.894;6.888;2022-07-22T04:04:27;71.73;;;11.80;;
4049;SDS011;2039;50.894;6.888;2022-07-22T04:06:53;75.67;;;13.67;;
4049;SDS011;2039;50.894;6.888;2022-07-22T04:09:18;69.20;;;10.63;;
4049;SDS011;2039;50.894;6.888;2022-07-22T04:11:44;69.60;;;12.37;;
4049;SDS011;2039;50.894;6.888;2022-07-22T04:14:10;73.07;;;15.03;;
4049;SDS011;2039;50.894;6.888;2022-07-22T04:16:36;69.97;;;13.80;;
4049;SDS011;2039;50.894;6.888;2022-07-22T04:19:02;69.40;;;12.80;;
4049;SDS011;2039;50.894;6.888;2022-07-22T04:21:28;70.00;;;11.40;;
4049;SDS011;2039;50.894;6.888;2022-07-22T04:23:54;73.97;;;14.93;;
4049;SDS011;2039;50.894;6.888;2022-07-22T04:26:21;72.90;;;13.27;;
4049;SDS011;2039;50.894;6.888;2022-07-22T04:28:47;72.87;;;10.50;;
4049;SDS011;2039;50.894;6.888;2022-07-22T04:31:13;72.73;;;14.50;;
4049;SDS011;2039;50.894;6.888;2022-07-22T04:33:38;73.30;;;14.87;;
4049;SDS011;2039;50.894;6.888;2022-07-22T04:36:04;79.13;;;13.07;;
4049;SDS011;2039;50.894;6.888;2022-07-22T04:38:30;70.30;;;14.70;;
4049;SDS011;2039;50.894;6.888;2022-07-22T04:40:56;70.87;;;15.30;;
4049;SDS011;2039;50.894;6.888;2022-07-22T04:43:22;74.10;;;13.50;;
4049;SDS011;2039;50.894;6.888;2022-07-22T04:45:48;72.53;;;15.03;;
4049;SDS011;2039;50.894;6.888;2022-07-22T04:48:15;71.17;;;12.53;;
4049;SDS011;2039;50.894;6.888;2022-07-22T04:50:41;69.50;;;9.83;;
4049;SDS011;2039;50.894;6.888;2022-07-22T04:53:07;69.17;;;10.80;;
4049;SDS011;2039;50.894;6.888;2022-07-22T04:55:33;69.50;;;11.80;;
4049;SDS011;2039;50.894;6.888;2022-07-22T04:57:59;73.30;;;11.63;;
4049;SDS011;2039;50.894;6.888;2022-07-22T05:00:24;68.40;;;13.53;;
4049;SDS011;2039;50.894;6.888;2022-07-22T05:02:50;70.03;;;11.13;;
4049;SDS011;2039;50.894;6.888;2022-07-22T05:05:16;68.53;;;10.47;;
4049;SDS011;2039;50.894;6.888;2022-07-22T05:07:42;73.97;;;14.60;;
4049;SDS011;2039;50.894;6.888;2022-07-22T05:10:08;68.63;;;11.93;;
4049;SDS011;2039;50.894;6.888;2022-07-22T05:12:35;68.00;;;10.03;;
4049;SDS011;2039;50.894;6.888;2022-07-22T05:15:01;67.87;;;10.80;;
4049;SDS011;2039;50.894;6.888;2022-07-22T05:17:27;71.80;;;11.93;;
4049;SDS011;2039;50.894;6.888;2022-07-22T05:19:52;66.77;;;8.47;;
4049;SDS011;2039;50.894;6.888;2022-07-22T05:22:18;67.93;;;10.60;;
4049;SDS011;2039;50.894;6.888;2022-07-22T05:24:44;67.37;;;9.60;;
4049;SDS011;2039;50.894;6.888;2022-07-22T05:27:10;66.80;;;10.13;;
4049;SDS011;2039;50.894;6.888;2022-07-22T05:29:36;68.90;;;9.50;;
4049;SDS011;2039;50.894;6.888;2022-07-22T05:32:02;67.60;;;8.40;;
4049;SDS011;2039;50.894;6.888;2022-07-22T05:34:28;67.40;;;8.10;;
4049;SDS011;2039;50.894;6.888;2022-07-22T05:36:54;66.80;;;8.40;;
4049;SDS011;2039;50.894;6.888;2022-07-22T05:39:20;66.57;;;8.23;;
4049;SDS011;2039;50.894;6.888;2022-07-22T05:41:46;76.20;;;8.77;;
4049;SDS011;2039;50.894;6.888;2022-07-22T05:44:11;69.40;;;7.73;;
4049;SDS011;2039;50.894;6.888;2022-07-22T05:46:39;70.10;;;7.63;;
4049;SDS011;2039;50.894;6.888;2022-07-22T05:49:05;67.63;;;7.60;;
4049;SDS011;2039;50.894;6.888;2022-07-22T05:51:31;70.23;;;9.40;;
4049;SDS011;2039;50.894;6.888;2022-07-22T05:53:57;69.43;;;10.50;;
4049;SDS011;2039;50.894;6.888;2022-07-22T05:56:23;68.33;;;8.90;;
4049;SDS011;2039;50.894;6.888;2022-07-22T05:58:48;70.80;;;9.83;;
4049;SDS011;2039;50.894;6.888;2022-07-22T06:01:14;75.83;;;9.63;;
4049;SDS011;2039;50.894;6.888;2022-07-22T06:03:40;70.80;;;9.60;;
4049;SDS011;2039;50.894;6.888;2022-07-22T06:06:06;68.70;;;9.07;;
4049;SDS011;2039;50.894;6.888;2022-07-22T06:08:33;68.97;;;8.83;;
4049;SDS011;2039;50.894;6.888;2022-07-22T06:11:00;72.73;;;11.43;;
4049;SDS011;2039;50.894;6.888;2022-07-22T06:13:26;70.67;;;11.70;;
4049;SDS011;2039;50.894;6.888;2022-07-22T06:15:53;77.03;;;13.40;;
4049;SDS011;2039;50.894;6.888;2022-07-22T06:18:19;76.53;;;11.33;;
4049;SDS011;2039;50.894;6.888;2022-07-22T06:20:44;76.20;;;13.90;;
4049;SDS011;2039;50.894;6.888;2022-07-22T06:23:10;73.10;;;12.80;;
4049;SDS011;2039;50.894;6.888;2022-07-22T06:25:36;73.57;;;15.87;;
4049;SDS011;2039;50.894;6.888;2022-07-22T06:28:02;74.10;;;13.93;;
4049;SDS011;2039;50.894;6.888;2022-07-22T06:30:28;74.63;;;15.13;;
4049;SDS011;2039;50.894;6.888;2022-07-22T06:32:54;74.20;;;12.73;;
4049;SDS011;2039;50.894;6.888;2022-07-22T06:35:20;75.50;;;12.27;;
4049;SDS011;2039;50.894;6.888;2022-07-22T06:37:45;78.83;;;12.27;;
4049;SDS011;2039;50.894;6.888;2022-07-22T06:40:11;78.50;;;14.77;;
4049;SDS011;2039;50.894;6.888;2022-07-22T06:42:38;73.13;;;14.97;;
4049;SDS011;2039;50.894;6.888;2022-07-22T06:45:05;78.23;;;16.23;;
4049;SDS011;2039;50.894;6.888;2022-07-22T06:47:31;79.03;;;18.80;;
4049;SDS011;2039;50.894;6.888;2022-07-22T06:50:00;79.93;;;18.10;;
4049;SDS011;2039;50.894;6.888;2022-07-22T06:52:30;81.40;;;21.43;;
4049;SDS011;2039;50.894;6.888;2022-07-22T06:54:56;81.37;;;19.70;;
4049;SDS011;2039;50.894;6.888;2022-07-22T06:57:21;76.50;;;17.90;;
4049;SDS011;2039;50.894;6.888;2022-07-22T06:59:47;75.60;;;20.90;;
4049;SDS011;2039;50.894;6.888;2022-07-22T07:02:13;78.57;;;20.13;;
4049;SDS011;2039;50.894;6.888;2022-07-22T07:04:39;78.40;;;25.30;;
4049;SDS011;2039;50.894;6.888;2022-07-22T07:07:04;80.60;;;21.57;;
4049;SDS011;2039;50.894;6.888;2022-07-22T07:09:30;78.57;;;23.80;;
4049;SDS011;2039;50.894;6.888;2022-07-22T07:11:56;76.60;;;25.93;;
4049;SDS011;2039;50.894;6.888;2022-07-22T07:14:21;80.17;;;23.57;;
4049;SDS011;2039;50.894;6.888;2022-07-22T07:16:47;75.30;;;20.70;;
4049;SDS011;2039;50.894;6.888;2022-07-22T07:19:13;76.03;;;21.33;;
4049;SDS011;2039;50.894;6.888;2022-07-22T07:21:39;75.80;;;15.13;;
4049;SDS011;2039;50.894;6.888;2022-07-22T07:24:04;71.40;;;14.97;;
4049;SDS011;2039;50.894;6.888;2022-07-22T07:26:30;71.07;;;15.07;;
4049;SDS011;2039;50.894;6.888;2022-07-22T07:28:56;73.90;;;15.37;;
4049;SDS011;2039;50.894;6.888;2022-07-22T07:31:22;76.70;;;17.57;;
4049;SDS011;2039;50.894;6.888;2022-07-22T07:33:48;69.17;;;12.50;;
4049;SDS011;2039;50.894;6.888;2022-07-22T07:36:13;69.80;;;14.27;;
4049;SDS011;2039;50.894;6.888;2022-07-22T07:38:39;71.97;;;16.47;;
4049;SDS011;2039;50.894;6.888;2022-07-22T07:41:06;72.17;;;18.47;;
4049;SDS011;2039;50.894;6.888;2022-07-22T07:43:31;72.00;;;14.97;;
4049;SDS011;2039;50.894;6.888;2022-07-22T07:45:57;75.03;;;14.90;;
4049;SDS011;2039;50.894;6.888;2022-07-22T07:48:23;77.90;;;14.93;;
4049;SDS011;2039;50.894;6.888;2022-07-22T07:50:49;69.30;;;9.80;;
4049;SDS011;2039;50.894;6.888;2022-07-22T07:53:15;69.67;;;11.10;;
4049;SDS011;2039;50.894;6.888;2022-07-22T07:55:42;70.20;;;10.47;;
4049;SDS011;2039;50.894;6.888;2022-07-22T07:58:08;71.97;;;10.50;;
4049;SDS011;2039;50.894;6.888;2022-07-22T08:00:34;68.10;;;9.70;;
4049;SDS011;2039;50.894;6.888;2022-07-22T08:03:01;69.47;;;7.93;;
4049;SDS011;2039;50.894;6.888;2022-07-22T08:05:27;67.27;;;8.77;;
4049;SDS011;2039;50.894;6.888;2022-07-22T08:07:53;74.50;;;9.53;;
4049;SDS011;2039;50.894;6.888;2022-07-22T08:10:19;67.50;;;8.63;;
4049;SDS011;2039;50.894;6.888;2022-07-22T08:12:45;71.47;;;10.23;;
4049;SDS011;2039;50.894;6.888;2022-07-22T08:15:11;67.30;;;8.87;;
4049;SDS011;2039;50.894;6.888;2022-07-22T08:17:37;71.13;;;7.90;;
4049;SDS011;2039;50.894;6.888;2022-07-22T08:20:03;69.47;;;8.97;;
4049;SDS011;2039;50.894;6.888;2022-07-22T08:22:30;69.70;;;10.10;;
4049;SDS011;2039;50.894;6.888;2022-07-22T08:24:56;69.40;;;11.10;;
4049;SDS011;2039;50.894;6.888;2022-07-22T08:27:21;74.37;;;10.67;;
4049;SDS011;2039;50.894;6.888;2022-07-22T08:29:47;68.20;;;11.27;;
4049;SDS011;2039;50.894;6.888;2022-07-22T08:32:13;70.07;;;8.87;;
4049;SDS011;2039;50.894;6.888;2022-07-22T08:34:39;66.97;;;10.07;;
4049;SDS011;2039;50.894;6.888;2022-07-22T08:37:05;70.60;;;11.80;;
4049;SDS011;2039;50.894;6.888;2022-07-22T08:39:34;71.87;;;12.40;;
4049;SDS011;2039;50.894;6.888;2022-07-22T08:42:00;71.37;;;12.50;;
4049;SDS011;2039;50.894;6.888;2022-07-22T08:44:32;70.43;;;14.17;;
4049;SDS011;2039;50.894;6.888;2022-07-22T08:46:59;73.77;;;9.57;;
4049;SDS011;2039;50.894;6.888;2022-07-22T08:49:25;70.07;;;9.00;;
4049;SDS011;2039;50.894;6.888;2022-07-22T08:51:51;73.87;;;8.90;;
4049;SDS011;2039;50.894;6.888;2022-07-22T08:54:17;73.37;;;10.50;;
4049;SDS011;2039;50.894;6.888;2022-07-22T08:56:50;70.10;;;12.70;;
4049;SDS011;2039;50.894;6.888;2022-07-22T08:59:17;73.03;;;13.00;;
4049;SDS011;2039;50.894;6.888;2022-07-22T09:02:03;74.20;;;12.40;;
4049;SDS011;2039;50.894;6.888;2022-07-22T09:04:49;71.07;;;10.80;;
4049;SDS011;2039;50.894;6.888;2022-07-22T09:07:22;69.87;;;12.10;;
4049;SDS011;2039;50.894;6.888;2022-07-22T09:09:49;72.90;;;15.33;;
4049;SDS011;2039;50.894;6.888;2022-07-22T09:12:15;70.63;;;12.77;;
4049;SDS011;2039;50.894;6.888;2022-07-22T09:14:44;71.80;;;13.57;;
4049;SDS011;2039;50.894;6.888;2022-07-22T09:17:28;73.30;;;16.27;;
4049;SDS011;2039;50.894;6.888;2022-07-22T09:19:55;73.80;;;17.20;;
4049;SDS011;2039;50.894;6.888;2022-07-22T09:22:31;72.13;;;16.90;;
4049;SDS011;2039;50.894;6.888;2022-07-22T09:24:58;75.20;;;15.67;;
4049;SDS011;2039;50.894;6.888;2022-07-22T09:27:27;74.03;;;15.33;;
4049;SDS011;2039;50.894;6.888;2022-07-22T09:29:54;74.10;;;14.57;;
4049;SDS011;2039;50.894;6.888;2022-07-22T09:32:21;78.80;;;19.40;;
4049;SDS011;2039;50.894;6.888;2022-07-22T09:34:47;73.20;;;14.93;;
4049;SDS011;2039;50.894;6.888;2022-07-22T09:37:13;74.83;;;15.00;;
4049;SDS011;2039;50.894;6.888;2022-07-22T09:39:39;78.70;;;14.40;;
4049;SDS011;2039;50.894;6.888;2022-07-22T09:42:06;77.83;;;16.33;;
4049;SDS011;2039;50.894;6.888;2022-07-22T09:44:32;77.30;;;16.17;;
4049;SDS011;2039;50.894;6.888;2022-07-22T09:46:59;77.77;;;16.03;;
4049;SDS011;2039;50.894;6.888;2022-07-22T09:49:31;77.43;;;15.53;;
4049;SDS011;2039;50.894;6.888;2022-07-22T09:51:58;75.67;;;13.80;;
4049;SDS011;2039;50.894;6.888;2022-07-22T09:54:26;76.97;;;12.00;;
4049;SDS011;2039;50.894;6.888;2022-07-22T09:56:56;77.07;;;12.87;;
4049;SDS011;2039;50.894;6.888;2022-07-22T09:59:22;78.57;;;15.70;;
4049;SDS011;2039;50.894;6.888;2022-07-22T10:01:50;74.67;;;11.77;;
4049;SDS011;2039;50.894;6.888;2022-07-22T10:04:19;74.17;;;10.27;;
4049;SDS011;2039;50.894;6.888;2022-07-22T10:06:46;76.40;;;10.20;;
4049;SDS011;2039;50.894;6.888;2022-07-22T10:09:14;76.70;;;9.80;;
4049;SDS011;2039;50.894;6.888;2022-07-22T10:11:41;74.10;;;9.00;;
4049;SDS011;2039;50.894;6.888;2022-07-22T10:14:11;76.03;;;9.60;;
4049;SDS011;2039;50.894;6.888;2022-07-22T10:16:38;74.10;;;8.23;;
4049;SDS011;2039;50.894;6.888;2022-07-22T10:19:04;76.43;;;9.70;;
4049;SDS011;2039;50.894;6.888;2022-07-22T10:21:31;76.90;;;10.67;;
4049;SDS011;2039;50.894;6.888;2022-07-22T10:26:53;77.43;;;10.17;;
4049;SDS011;2039;50.894;6.888;2022-07-22T10:29:26;78.20;;;10.37;;
4049;SDS011;2039;50.894;6.888;2022-07-22T10:34:43;76.70;;;9.57;;
4049;SDS011;2039;50.894;6.888;2022-07-22T10:40:17;74.67;;;9.57;;
4049;SDS011;2039;50.894;6.888;2022-07-22T10:45:26;72.30;;;9.27;;
4049;SDS011;2039;50.894;6.888;2022-07-22T10:47:56;74.50;;;10.27;;
4049;SDS011;2039;50.894;6.888;2022-07-22T10:55:31;74.47;;;10.60;;
4049;SDS011;2039;50.894;6.888;2022-07-22T10:57:59;77.00;;;11.37;;
4049;SDS011;2039;50.894;6.888;2022-07-22T11:00:25;75.40;;;10.90;;
4049;SDS011;2039;50.894;6.888;2022-07-22T11:02:51;80.60;;;11.67;;
4049;SDS011;2039;50.894;6.888;2022-07-22T11:05:27;75.37;;;11.10;;
4049;SDS011;2039;50.894;6.888;2022-07-22T11:07:55;73.77;;;8.80;;
4049;SDS011;2039;50.894;6.888;2022-07-22T11:10:21;74.90;;;10.00;;
4049;SDS011;2039;50.894;6.888;2022-07-22T11:12:47;77.13;;;12.80;;
4049;SDS011;2039;50.894;6.888;2022-07-22T11:15:14;80.10;;;14.30;;
4049;SDS011;2039;50.894;6.888;2022-07-22T11:17:40;76.10;;;14.17;;
4049;SDS011;2039;50.894;6.888;2022-07-22T11:20:07;78.93;;;15.50;;
4049;SDS011;2039;50.894;6.888;2022-07-22T11:22:35;74.93;;;12.30;;
4049;SDS011;2039;50.894;6.888;2022-07-22T11:25:02;74.57;;;10.53;;
4049;SDS011;2039;50.894;6.888;2022-07-22T11:27:30;75.67;;;11.47;;
4049;SDS011;2039;50.894;6.888;2022-07-22T11:29:56;74.13;;;9.17;;
4049;SDS011;2039;50.894;6.888;2022-07-22T11:32:24;76.30;;;10.73;;
4049;SDS011;2039;50.894;6.888;2022-07-22T11:34:51;77.70;;;9.40;;
4049;SDS011;2039;50.894;6.888;2022-07-22T11:37:17;76.10;;;12.27;;
4049;SDS011;2039;50.894;6.888;2022-07-22T11:39:44;78.73;;;12.03;;
4049;SDS011;2039;50.894;6.888;2022-07-22T11:42:11;81.90;;;18.03;;
4049;SDS011;2039;50.894;6.888;2022-07-22T11:44:37;77.33;;;12.03;;
4049;SDS011;2039;50.894;6.888;2022-07-22T11:47:05;75.20;;;10.33;;
4049;SDS011;2039;50.894;6.888;2022-07-22T11:49:33;77.77;;;15.00;;
4049;SDS011;2039;50.894;6.888;2022-07-22T11:52:04;74.47;;;10.37;;
4049;SDS011;2039;50.894;6.888;2022-07-22T11:54:36;74.80;;;9.70;;
4049;SDS011;2039;50.894;6.888;2022-07-22T11:57:04;76.53;;;9.20;;
4049;SDS011;2039;50.894;6.888;2022-07-22T11:59:29;73.37;;;7.80;;
4049;SDS011;2039;50.894;6.888;2022-07-22T12:01:55;74.50;;;9.47;;
4049;SDS011;2039;50.894;6.888;2022-07-22T12:04:23;74.47;;;8.30;;
4049;SDS011;2039;50.894;6.888;2022-07-22T12:06:50;75.37;;;8.70;;
4049;SDS011;2039;50.894;6.888;2022-07-22T12:11:46;73.27;;;9.33;;
4049;SDS011;2039;50.894;6.888;2022-07-22T12:14:18;76.17;;;9.80;;
4049;SDS011;2039;50.894;6.888;2022-07-22T12:19:25;76.03;;;8.13;;
4049;SDS011;2039;50.894;6.888;2022-07-22T12:22:00;73.00;;;8.27;;
4049;SDS011;2039;50.894;6.888;2022-07-22T12:24:27;76.50;;;8.77;;
4049;SDS011;2039;50.894;6.888;2022-07-22T12:26:57;73.27;;;8.40;;
4049;SDS011;2039;50.894;6.888;2022-07-22T12:29:26;76.50;;;8.97;;
4049;SDS011;2039;50.894;6.888;2022-07-22T12:31:59;75.20;;;8.50;;
4049;SDS011;2039;50.894;6.888;2022-07-22T12:34:37;74.90;;;9.50;;
4049;SDS011;2039;50.894;6.888;2022-07-22T12:37:25;74.40;;;9.50;;
4049;SDS011;2039;50.894;6.888;2022-07-22T12:40:11;75.40;;;8.67;;
4049;SDS011;2039;50.894;6.888;2022-07-22T12:43:01;80.40;;;10.47;;
4049;SDS011;2039;50.894;6.888;2022-07-22T12:45:27;74.30;;;8.30;;
4049;SDS011;2039;50.894;6.888;2022-07-22T12:47:55;73.97;;;9.03;;
4049;SDS011;2039;50.894;6.888;2022-07-22T12:51:12;73.70;;;9.20;;
4049;SDS011;2039;50.894;6.888;2022-07-22T12:53:23;74.10;;;9.00;;
4049;SDS011;2039;50.894;6.888;2022-07-22T12:55:55;76.33;;;10.53;;
4049;SDS011;2039;50.894;6.888;2022-07-22T12:58:28;79.40;;;11.67;;
4049;SDS011;2039;50.894;6.888;2022-07-22T13:00:57;78.40;;;10.40;;
4049;SDS011;2039;50.894;6.888;2022-07-22T13:03:25;78.00;;;8.63;;
4049;SDS011;2039;50.894;6.888;2022-07-22T13:05:52;73.33;;;9.33;;
4049;SDS011;2039;50.894;6.888;2022-07-22T13:08:21;74.47;;;9.40;;
4049;SDS011;2039;50.894;6.888;2022-07-22T13:10:48;74.50;;;10.50;;
4049;SDS011;2039;50.894;6.888;2022-07-22T13:13:15;75.27;;;10.53;;
4049;SDS011;2039;50.894;6.888;2022-07-22T13:15:41;78.13;;;10.43;;
4049;SDS011;2039;50.894;6.888;2022-07-22T13:18:07;77.63;;;9.83;;
4049;SDS011;2039;50.894;6.888;2022-07-22T13:20:33;75.93;;;10.50;;
4049;SDS011;2039;50.894;6.888;2022-07-22T13:22:59;77.33;;;9.77;;
4049;SDS011;2039;50.894;6.888;2022-07-22T13:25:25;75.17;;;9.73;;
4049;SDS011;2039;50.894;6.888;2022-07-22T13:27:52;74.40;;;8.97;;
4049;SDS011;2039;50.894;6.888;2022-07-22T13:30:18;75.20;;;9.50;;
4049;SDS011;2039;50.894;6.888;2022-07-22T13:32:44;76.53;;;10.60;;
4049;SDS011;2039;50.894;6.888;2022-07-22T13:35:10;75.33;;;10.80;;
4049;SDS011;2039;50.894;6.888;2022-07-22T13:37:36;74.10;;;10.10;;
4049;SDS011;2039;50.894;6.888;2022-07-22T13:40:03;74.70;;;10.03;;
4049;SDS011;2039;50.894;6.888;2022-07-22T13:42:29;76.90;;;10.00;;
4049;SDS011;2039;50.894;6.888;2022-07-22T13:44:55;77.83;;;10.00;;
4049;SDS011;2039;50.894;6.888;2022-07-22T13:47:21;76.70;;;9.93;;
4049;SDS011;2039;50.894;6.888;2022-07-22T13:49:47;77.70;;;11.30;;
4049;SDS011;2039;50.894;6.888;2022-07-22T13:52:14;79.90;;;11.53;;
4049;SDS011;2039;50.894;6.888;2022-07-22T13:54:41;75.07;;;9.90;;
4049;SDS011;2039;50.894;6.888;2022-07-22T13:57:07;75.80;;;11.03;;
4049;SDS011;2039;50.894;6.888;2022-07-22T13:59:35;76.20;;;11.53;;
4049;SDS011;2039;50.894;6.888;2022-07-22T14:02:02;76.67;;;9.93;;
4049;SDS011;2039;50.894;6.888;2022-07-22T14:04:28;77.77;;;11.00;;
4049;SDS011;2039;50.894;6.888;2022-07-22T14:06:54;77.07;;;11.70;;
4049;SDS011;2039;50.894;6.888;2022-07-22T14:09:20;79.00;;;10.93;;
4049;SDS011;2039;50.894;6.888;2022-07-22T14:11:46;79.67;;;10.80;;
4049;SDS011;2039;50.894;6.888;2022-07-22T14:14:12;74.83;;;10.40;;
4049;SDS011;2039;50.894;6.888;2022-07-22T14:16:38;76.37;;;9.90;;
4049;SDS011;2039;50.894;6.888;2022-07-22T14:19:05;77.30;;;10.83;;
4049;SDS011;2039;50.894;6.888;2022-07-22T14:21:34;74.97;;;10.00;;
4049;SDS011;2039;50.894;6.888;2022-07-22T14:24:01;76.20;;;10.83;;
4049;SDS011;2039;50.894;6.888;2022-07-22T14:26:28;78.40;;;11.00;;
4049;SDS011;2039;50.894;6.888;2022-07-22T14:28:54;79.73;;;10.60;;
4049;SDS011;2039;50.894;6.888;2022-07-22T14:31:20;74.80;;;9.80;;
4049;SDS011;2039;50.894;6.888;2022-07-22T14:33:46;80.00;;;10.13;;
4049;SDS011;2039;50.894;6.888;2022-07-22T14:36:12;80.63;;;11.03;;
4049;SDS011;2039;50.894;6.888;2022-07-22T14:38:38;74.30;;;9.97;;
4049;SDS011;2039;50.894;6.888;2022-07-22T14:41:04;75.53;;;9.87;;
4049;SDS011;2039;50.894;6.888;2022-07-22T14:43:32;76.10;;;9.53;;
4049;SDS011;2039;50.894;6.888;2022-07-22T14:46:02;76.33;;;10.27;;
4049;SDS011;2039;50.894;6.888;2022-07-22T14:48:36;76.93;;;10.33;;
4049;SDS011;2039;50.894;6.888;2022-07-22T14:51:06;78.97;;;10.80;;
4049;SDS011;2039;50.894;6.888;2022-07-22T14:53:32;78.17;;;10.57;;
4049;SDS011;2039;50.894;6.888;2022-07-22T14:55:58;79.73;;;11.33;;
4049;SDS011;2039;50.894;6.888;2022-07-22T14:58:24;77.17;;;10.70;;
4049;SDS011;2039;50.894;6.888;2022-07-22T15:00:50;77.47;;;11.30;;
4049;SDS011;2039;50.894;6.888;2022-07-22T15:03:16;77.60;;;11.07;;
4049;SDS011;2039;50.894;6.888;2022-07-22T15:05:42;75.90;;;10.97;;
4049;SDS011;2039;50.894;6.888;2022-07-22T15:08:08;76.43;;;10.03;;
4049;SDS011;2039;50.894;6.888;2022-07-22T15:10:37;78.60;;;11.90;;